Observations for Trim Patrick St
| Time | AQI | Temp °C | Hum % | Pres Pa | CO μg/m³ | H₂S μg/m³ | NO μg/m³ | NO₂ μg/m³ | O₃ μg/m³ | SO₂ μg/m³ | PM1 μg/m³ | PM2.5 μg/m³ | PM10 μg/m³ |
|---|---|---|---|---|---|---|---|---|---|---|---|---|---|
| Saturday 1 August 2026 | |||||||||||||
| 13:27 | 2 | 24.9 | 37 | 68,924 | 0 | 10.94 | 1.48 | 11.83 | 95.4 | 9.8 | 9.71 | 19.07 | 20.97 |
| 13:26 | 2 | 24.9 | 37 | 68,916 | 0 | 10.19 | 1.46 | 9.58 | 85.57 | 10.09 | 14 | 23.88 | 26.27 |
| 13:25 | 2 | 24.9 | 36 | 68,906 | 0 | 9.72 | 1.54 | 13.29 | 85.9 | 9.78 | 11.43 | 19.96 | 21.96 |
| 13:24 | 2 | 25 | 37 | 68,922 | 0 | 5.91 | 1.64 | 9.34 | 80.26 | 9.61 | 8.86 | 19.12 | 21.04 |
| 13:23 | 2 | 25 | 36 | 68,914 | 0 | 11.23 | 1.65 | 14.08 | 87.93 | 9.29 | 7.14 | 15.98 | 17.57 |
| 13:22 | 2 | 25 | 37 | 68,934 | 0 | 9.1 | 1.71 | 12.11 | 88.05 | 10.58 | 8.86 | 17.55 | 19.3 |
| 13:21 | 2 | 25.1 | 37 | 68,928 | 0 | 9.44 | 2.13 | 10.08 | 91.04 | 10.91 | 8 | 16.72 | 18.4 |
| 13:20 | 2 | 25.1 | 36 | 68,914 | 0 | 7.69 | 1.86 | 10.5 | 91.38 | 9.58 | 8 | 15.22 | 16.74 |
| 13:19 | 2 | 25.1 | 37 | 68,932 | 0 | 9.79 | 1.77 | 11.84 | 93.26 | 10.43 | 8.86 | 17.54 | 19.29 |
| 13:18 | 2 | 25.2 | 36 | 68,955 | 0 | 9.01 | 1.81 | 12.73 | 82.06 | 9.91 | 8.86 | 19.19 | 21.11 |
| 13:17 | 2 | 25.2 | 36 | 68,953 | 0 | 8.56 | 2.13 | 12.61 | 81.97 | 9.74 | 8 | 16 | 17.6 |
| 13:16 | 2 | 25.2 | 36 | 68,955 | 0 | 7.89 | 1.86 | 13.68 | 89.72 | 10 | 6.29 | 14.39 | 15.83 |
| 13:15 | 2 | 25.2 | 36 | 68,957 | 0 | 7.71 | 2.02 | 12.14 | 91.65 | 9.82 | 6.29 | 13.64 | 15 |
| 13:14 | 2 | 25.3 | 36 | 68,961 | 0 | 5.58 | 1.84 | 12.26 | 75.48 | 9.32 | 3.71 | 10.46 | 11.51 |
| 13:13 | 2 | 25.3 | 36 | 68,963 | 0 | 9.88 | 1.89 | 10.39 | 100.35 | 10.75 | 4.57 | 9.68 | 10.65 |
| 13:12 | 2 | 25.3 | 36 | 68,969 | 0 | 7.73 | 1.52 | 18.59 | 76.98 | 9.21 | 2.86 | 8.9 | 9.79 |
| 13:11 | 2 | 25.4 | 36 | 68,943 | 0 | 5.38 | 1.49 | 11.72 | 98.41 | 9.74 | 2.86 | 9.7 | 10.67 |
| 13:10 | 2 | 25.5 | 36 | 68,937 | 0 | 0.06 | 1.76 | 7.84 | 70.82 | 9.84 | 3.71 | 11.28 | 12.4 |
| 13:09 | 2 | 25.5 | 36 | 68,934 | 0 | 8.25 | 1.71 | 13.81 | 85.23 | 9.84 | 4.57 | 11.29 | 12.42 |
| 13:08 | 2 | 25.5 | 35 | 68,924 | 0 | 8.22 | 1.69 | 12.79 | 103.15 | 10.55 | 3.71 | 10.52 | 11.57 |